createdAt,value
2023-04-07T00:03:41.091Z,3.50
2023-04-07T00:08:05.195Z,3.40
2023-04-07T00:12:30.625Z,3.40
2023-04-07T00:16:54.485Z,3.40
2023-04-07T00:21:18.365Z,3.30
2023-04-07T00:25:43.387Z,3.20
2023-04-07T00:30:09.921Z,3.20
2023-04-07T00:34:33.819Z,3.20
2023-04-07T00:38:57.743Z,3.10
2023-04-07T00:43:21.600Z,3.00
2023-04-07T00:47:48.278Z,3.00
2023-04-07T00:52:13.373Z,2.90
2023-04-07T00:56:37.360Z,2.90
2023-04-07T01:01:08.578Z,2.80
2023-04-07T01:05:44.078Z,2.70
2023-04-07T01:10:13.713Z,2.70
2023-04-07T01:14:59.744Z,2.60
2023-04-07T01:19:40.901Z,2.60
2023-04-07T01:24:35.931Z,2.50
2023-04-07T01:29:15.600Z,2.50
2023-04-07T01:33:44.884Z,2.40
2023-04-07T01:38:10.522Z,2.40
2023-04-07T01:42:37.834Z,2.30
2023-04-07T01:47:03.224Z,2.30
2023-04-07T01:51:29.982Z,2.30
2023-04-07T01:55:49.074Z,2.30
2023-04-07T02:00:14.327Z,2.20
2023-04-07T02:04:53.871Z,2.20
2023-04-07T02:09:22.544Z,2.20
2023-04-07T02:13:47.904Z,2.10
2023-04-07T02:18:14.073Z,2.10
2023-04-07T02:22:39.422Z,2.10
2023-04-07T02:27:05.437Z,2.10
2023-04-07T02:31:29.472Z,2.10
2023-04-07T02:35:53.477Z,2.10
2023-04-07T02:40:18.722Z,2.00
2023-04-07T02:44:44.124Z,2.00
2023-04-07T02:49:08.074Z,2.00
2023-04-07T02:53:31.935Z,2.00
2023-04-07T02:57:56.020Z,2.00
2023-04-07T03:02:38.367Z,2.00
2023-04-07T03:07:02.566Z,2.00
2023-04-07T03:11:28.639Z,2.00
2023-04-07T03:15:55.032Z,2.10
2023-04-07T03:20:20.965Z,2.00
2023-04-07T03:24:45.144Z,2.00
2023-04-07T03:29:12.398Z,2.00
2023-04-07T03:33:38.999Z,2.00
2023-04-07T03:37:57.948Z,2.00
2023-04-07T03:42:22.435Z,1.90
2023-04-07T03:46:50.611Z,1.90
2023-04-07T03:51:15.855Z,1.80
2023-04-07T03:55:44.410Z,1.80
2023-04-07T04:00:17.800Z,1.70
2023-04-07T04:04:51.682Z,1.70
2023-04-07T04:09:17.864Z,1.70
2023-04-07T04:13:49.447Z,1.70
2023-04-07T04:18:13.749Z,1.60
2023-04-07T04:22:37.898Z,1.60
2023-04-07T04:27:01.993Z,1.60
2023-04-07T04:31:27.558Z,1.60
2023-04-07T04:35:51.933Z,1.60
2023-04-07T04:40:17.727Z,1.50
2023-04-07T04:44:45.464Z,1.50
2023-04-07T04:49:12.864Z,1.40
2023-04-07T04:53:36.988Z,1.40
2023-04-07T04:58:02.480Z,1.30
2023-04-07T05:02:38.538Z,1.30
2023-04-07T05:07:06.207Z,1.30
2023-04-07T05:11:30.456Z,1.40
2023-04-07T05:15:54.737Z,1.70
2023-04-07T05:20:18.890Z,2.30
2023-04-07T05:24:44.458Z,2.60
2023-04-07T05:29:08.600Z,2.70
2023-04-07T05:33:32.546Z,2.80
2023-04-07T05:37:57.026Z,2.90
2023-04-07T05:42:22.571Z,3.00
2023-04-07T05:46:49.849Z,3.10
2023-04-07T05:51:15.728Z,3.00
2023-04-07T05:55:43.458Z,3.00
2023-04-07T06:00:13.990Z,3.00
2023-04-07T06:04:46.288Z,2.90
2023-04-07T06:09:13.709Z,3.00
2023-04-07T06:13:37.681Z,3.10
2023-04-07T06:18:03.028Z,3.40
2023-04-07T06:22:27.008Z,3.70
2023-04-07T06:26:51.126Z,4.20
2023-04-07T06:31:15.015Z,4.60
2023-04-07T06:35:41.376Z,5.10
2023-04-07T06:40:05.919Z,5.70
2023-04-07T06:44:29.713Z,6.50
2023-04-07T06:48:53.709Z,7.40
2023-04-07T06:53:19.440Z,8.30
2023-04-07T06:57:43.455Z,9.00
2023-04-07T07:02:07.688Z,9.70
2023-04-07T07:06:31.730Z,10.50
2023-04-07T07:10:56.996Z,11.20
2023-04-07T07:15:20.761Z,11.20
2023-04-07T07:19:47.461Z,11.10
2023-04-07T07:24:11.483Z,11.20
2023-04-07T07:28:37.242Z,11.30
2023-04-07T07:33:01.486Z,11.20
2023-04-07T07:37:26.209Z,11.10
2023-04-07T07:41:50.797Z,11.00
2023-04-07T07:46:16.173Z,11.10
2023-04-07T07:50:40.102Z,11.70
2023-04-07T07:55:11.345Z,12.70
2023-04-07T07:59:36.101Z,14.10
2023-04-07T08:04:01.579Z,15.30
2023-04-07T08:08:25.915Z,16.10
2023-04-07T08:12:51.056Z,16.60
2023-04-07T08:17:16.909Z,16.80
2023-04-07T08:21:42.373Z,16.80
2023-04-07T08:26:06.324Z,16.60
2023-04-07T08:30:33.446Z,16.30
2023-04-07T08:34:59.533Z,16.00
2023-04-07T08:39:25.503Z,16.00
2023-04-07T08:43:50.879Z,16.30
2023-04-07T08:48:20.254Z,16.40
2023-04-07T08:52:49.393Z,16.40
2023-04-07T08:57:18.270Z,16.50
2023-04-07T09:01:43.066Z,16.40
2023-04-07T09:06:15.494Z,16.20
2023-04-07T09:10:40.468Z,16.00
2023-04-07T09:15:07.149Z,15.90
2023-04-07T09:19:34.703Z,15.80
2023-04-07T09:24:01.693Z,15.80
2023-04-07T09:28:29.146Z,15.90
2023-04-07T09:33:01.093Z,16.00
2023-04-07T09:37:25.703Z,15.80
2023-04-07T09:41:52.726Z,15.60
2023-04-07T09:46:19.643Z,15.50
2023-04-07T09:50:49.562Z,15.60
2023-04-07T09:55:21.552Z,15.70
2023-04-07T09:59:50.136Z,15.70
2023-04-07T10:04:28.833Z,15.80
2023-04-07T10:10:08.352Z,15.80
2023-04-07T10:14:39.802Z,15.80
2023-04-07T10:19:04.628Z,15.70
2023-04-07T10:23:41.735Z,15.40
2023-04-07T10:28:15.880Z,15.20
2023-04-07T10:32:48.453Z,15.10
2023-04-07T10:37:17.713Z,15.10
2023-04-07T10:41:43.078Z,15.10
2023-04-07T10:46:08.645Z,15.20
2023-04-07T10:50:32.566Z,15.40
2023-04-07T10:55:31.854Z,15.70
2023-04-07T11:00:17.814Z,16.00
2023-04-07T11:04:44.906Z,16.20
2023-04-07T11:09:20.693Z,16.50
2023-04-07T11:13:46.673Z,16.70
2023-04-07T11:18:17.166Z,16.80
2023-04-07T11:22:42.485Z,16.60
2023-04-07T11:27:06.606Z,16.40
2023-04-07T11:31:31.938Z,16.20
2023-04-07T11:35:58.350Z,16.30
2023-04-07T11:40:35.597Z,16.40
2023-04-07T11:44:59.596Z,16.30
2023-04-07T11:49:25.081Z,16.30
2023-04-07T11:53:49.445Z,16.40
2023-04-07T11:58:15.605Z,16.40
2023-04-07T12:02:39.770Z,16.20
2023-04-07T12:07:09.352Z,16.30
2023-04-07T12:11:33.939Z,16.50
2023-04-07T12:16:00.862Z,16.50
2023-04-07T12:20:24.926Z,16.30
2023-04-07T12:24:49.189Z,15.90
2023-04-07T12:29:29.795Z,15.40
2023-04-07T12:53:37.432Z,17.80
2023-04-07T12:58:41.659Z,17.10
2023-04-07T13:03:05.693Z,16.50
2023-04-07T13:07:29.737Z,16.30
2023-04-07T13:11:53.644Z,16.10
2023-04-07T13:16:19.495Z,15.60
2023-04-07T13:20:43.878Z,15.00
2023-04-07T13:25:15.558Z,14.50
2023-04-07T13:29:39.347Z,14.10
2023-04-07T13:34:04.677Z,13.90
2023-04-07T13:38:28.728Z,13.80
2023-04-07T13:42:52.527Z,13.70
2023-04-07T13:47:19.668Z,13.70
2023-04-07T13:51:45.188Z,13.70
2023-04-07T13:56:10.394Z,13.90
2023-04-07T14:00:35.960Z,14.00
2023-04-07T14:05:00.172Z,13.80
2023-04-07T14:09:25.672Z,13.60
2023-04-07T14:13:50.485Z,13.50
2023-04-07T14:18:14.472Z,13.50
2023-04-07T14:22:38.548Z,13.40
2023-04-07T14:27:04.056Z,13.30
2023-04-07T14:31:28.122Z,13.10
2023-04-07T14:35:52.614Z,13.00
2023-04-07T14:40:16.596Z,12.80
2023-04-07T14:44:42.861Z,12.70
2023-04-07T14:49:07.594Z,12.60
2023-04-07T14:53:31.424Z,12.40
2023-04-07T14:57:49.970Z,12.40
2023-04-07T15:02:09.613Z,12.30
2023-04-07T15:06:29.150Z,12.20
2023-04-07T15:10:47.548Z,12.20
2023-04-07T15:15:05.879Z,12.10
2023-04-07T15:19:24.915Z,12.10
2023-04-07T15:23:44.425Z,12.10
2023-04-07T15:28:02.461Z,12.00
2023-04-07T15:32:20.657Z,12.10
2023-04-07T15:36:40.044Z,12.20
2023-04-07T15:41:04.341Z,12.30
2023-04-07T15:45:28.509Z,12.40
2023-04-07T15:49:52.466Z,12.50
2023-04-07T15:54:17.657Z,12.60
2023-04-07T15:58:41.486Z,12.70
2023-04-07T16:03:06.269Z,12.70
2023-04-07T16:07:39.440Z,12.70
2023-04-07T16:12:06.741Z,12.60
2023-04-07T16:16:59.256Z,12.50
2023-04-07T16:21:23.629Z,12.50
2023-04-07T16:25:47.521Z,12.50
2023-04-07T16:30:15.125Z,12.40
2023-04-07T16:34:39.119Z,12.30
2023-04-07T16:39:02.923Z,12.00
2023-04-07T16:43:26.793Z,11.70
2023-04-07T16:47:52.131Z,11.30
2023-04-07T16:52:16.102Z,11.00
2023-04-07T17:01:21.647Z,10.50
2023-04-07T17:05:48.428Z,10.30
2023-04-07T17:10:14.165Z,10.10
2023-04-07T17:14:38.316Z,10.00
2023-04-07T17:19:02.269Z,9.80
2023-04-07T17:23:28.369Z,9.70
2023-04-07T17:27:55.033Z,9.60
2023-04-07T17:32:18.966Z,9.50
2023-04-07T17:36:43.013Z,9.40
2023-04-07T17:41:08.926Z,9.30
2023-04-07T17:45:33.157Z,9.20
2023-04-07T17:49:57.273Z,9.10
2023-04-07T17:54:21.544Z,9.00
2023-04-07T17:58:47.180Z,8.90
2023-04-07T18:03:06.026Z,8.90
2023-04-07T18:07:30.424Z,8.70
2023-04-07T18:11:54.396Z,8.70
2023-04-07T18:16:22.212Z,8.60
2023-04-07T18:20:46.702Z,8.50
2023-04-07T18:25:11.462Z,8.50
2023-04-07T18:29:35.430Z,8.40
2023-04-07T18:34:01.420Z,8.20
2023-04-07T18:38:25.598Z,8.20
2023-04-07T18:42:49.849Z,8.10
2023-04-07T18:47:13.727Z,8.00
2023-04-07T18:51:42.819Z,7.90
2023-04-07T18:56:06.943Z,7.70
2023-04-07T19:00:30.860Z,7.60
2023-04-07T19:04:55.019Z,7.50
2023-04-07T19:09:20.353Z,7.40
2023-04-07T19:13:44.255Z,7.30
2023-04-07T19:18:08.897Z,7.30
2023-04-07T19:22:32.752Z,7.30
2023-04-07T19:26:58.472Z,7.20
2023-04-07T19:31:22.343Z,7.10
2023-04-07T19:35:46.366Z,7.10
2023-04-07T19:40:11.031Z,7.00
2023-04-07T19:44:36.504Z,6.80
2023-04-07T19:49:00.452Z,6.70
2023-04-07T19:53:26.163Z,6.60
2023-04-07T19:57:50.134Z,6.60
2023-04-07T20:02:16.523Z,6.60
2023-04-07T20:06:40.628Z,6.50
2023-04-07T20:11:04.781Z,6.50
2023-04-07T20:15:28.892Z,6.50
2023-04-07T20:19:56.382Z,6.50
2023-04-07T20:24:20.319Z,6.30
2023-04-07T20:28:44.416Z,6.30
2023-04-07T20:33:08.499Z,6.30
2023-04-07T20:37:34.957Z,6.20
2023-04-07T20:41:58.895Z,6.20
2023-04-07T20:46:23.205Z,6.20
2023-04-07T20:50:48.509Z,6.10
2023-04-07T20:55:14.237Z,6.10
2023-04-07T20:59:38.200Z,6.10
2023-04-07T21:04:02.926Z,6.00
2023-04-07T21:08:27.004Z,6.10
2023-04-07T21:12:52.196Z,6.10
2023-04-07T21:17:16.174Z,6.20
2023-04-07T21:21:39.962Z,6.20
2023-04-07T21:26:04.329Z,6.20
2023-04-07T21:30:29.967Z,6.30
2023-04-07T21:34:54.126Z,6.30
2023-04-07T21:39:18.146Z,6.30
2023-04-07T21:43:42.389Z,6.30
2023-04-07T21:48:08.029Z,6.30
2023-04-07T21:52:31.921Z,6.30
2023-04-07T21:56:55.920Z,6.30
2023-04-07T22:01:19.959Z,6.30
2023-04-07T22:05:45.812Z,6.20
2023-04-07T22:10:13.678Z,6.30
2023-04-07T22:14:37.629Z,6.30
2023-04-07T22:19:01.522Z,6.30
2023-04-07T22:23:26.755Z,6.30
2023-04-07T22:27:52.307Z,6.30
2023-04-07T22:32:16.737Z,6.30
2023-04-07T22:36:40.842Z,6.30
2023-04-07T22:41:06.539Z,6.30
2023-04-07T22:45:31.782Z,6.30
2023-04-07T22:49:56.466Z,6.30
2023-04-07T22:54:20.525Z,6.30
2023-04-07T22:58:46.376Z,6.30
2023-04-07T23:03:10.456Z,6.30
2023-04-07T23:07:34.514Z,6.30
2023-04-07T23:11:58.543Z,6.30
2023-04-07T23:16:24.326Z,6.30
2023-04-07T23:20:52.354Z,6.30
2023-04-07T23:25:16.566Z,6.20
2023-04-07T23:29:40.814Z,6.20
2023-04-07T23:34:06.356Z,6.20
2023-04-07T23:38:30.307Z,6.10
2023-04-07T23:42:54.208Z,6.10
2023-04-07T23:47:18.200Z,6.10
2023-04-07T23:51:43.790Z,6.20
2023-04-07T23:56:08.081Z,6.20
